sensor_id;sensor_type;location;lat;lon;timestamp;pressure;altitude;pressure_sealevel;temperature;humidity
71917;BME280;59793;46.506;6.674;2022-10-16T00:01:19;97152.97;;;17.05;69.80
71917;BME280;59793;46.506;6.674;2022-10-16T00:03:45;97140.81;;;16.97;68.69
71917;BME280;59793;46.506;6.674;2022-10-16T00:06:12;97148.78;;;17.08;68.45
71917;BME280;59793;46.506;6.674;2022-10-16T00:08:38;97166.28;;;17.27;68.46
71917;BME280;59793;46.506;6.674;2022-10-16T00:11:06;97163.25;;;17.21;68.30
71917;BME280;59793;46.506;6.674;2022-10-16T00:13:33;97167.03;;;17.27;68.10
71917;BME280;59793;46.506;6.674;2022-10-16T00:16:00;97168.56;;;17.32;67.82
71917;BME280;59793;46.506;6.674;2022-10-16T00:18:26;97160.56;;;17.32;67.79
71917;BME280;59793;46.506;6.674;2022-10-16T00:20:52;97157.91;;;17.25;67.87
71917;BME280;59793;46.506;6.674;2022-10-16T00:23:18;97140.41;;;17.06;68.36
71917;BME280;59793;46.506;6.674;2022-10-16T00:25:43;97172.34;;;17.24;68.94
71917;BME280;59793;46.506;6.674;2022-10-16T00:28:09;97165.91;;;17.14;68.82
71917;BME280;59793;46.506;6.674;2022-10-16T00:30:38;97165.50;;;17.01;69.37
71917;BME280;59793;46.506;6.674;2022-10-16T00:33:03;97156.38;;;16.95;69.98
71917;BME280;59793;46.506;6.674;2022-10-16T00:35:30;97165.50;;;16.94;70.23
71917;BME280;59793;46.506;6.674;2022-10-16T00:37:55;97171.59;;;16.98;70.01
71917;BME280;59793;46.506;6.674;2022-10-16T00:40:20;97166.25;;;16.84;70.44
71917;BME280;59793;46.506;6.674;2022-10-16T00:42:46;97169.31;;;16.86;69.65
71917;BME280;59793;46.506;6.674;2022-10-16T00:45:11;97164.75;;;16.93;69.61
71917;BME280;59793;46.506;6.674;2022-10-16T00:47:39;97154.09;;;16.97;68.43
71917;BME280;59793;46.506;6.674;2022-10-16T00:50:27;97173.13;;;17.03;69.26
71917;BME280;59793;46.506;6.674;2022-10-16T00:52:53;97157.53;;;16.98;69.05
71917;BME280;59793;46.506;6.674;2022-10-16T00:55:20;97173.09;;;16.99;68.68
71917;BME280;59793;46.506;6.674;2022-10-16T00:57:46;97173.13;;;17.10;68.06
71917;BME280;59793;46.506;6.674;2022-10-16T01:00:16;97176.16;;;17.08;66.37
71917;BME280;59793;46.506;6.674;2022-10-16T01:02:42;97175.41;;;17.18;66.42
71917;BME280;59793;46.506;6.674;2022-10-16T01:05:08;97170.84;;;17.19;66.24
71917;BME280;59793;46.506;6.674;2022-10-16T01:10:36;97167.03;;;17.27;65.79
71917;BME280;59793;46.506;6.674;2022-10-16T01:13:06;97188.72;;;17.40;64.50
71917;BME280;59793;46.506;6.674;2022-10-16T01:18:21;97179.56;;;17.41;65.13
71917;BME280;59793;46.506;6.674;2022-10-16T01:21:04;97178.06;;;17.36;65.08
71917;BME280;59793;46.506;6.674;2022-10-16T01:28:55;97183.41;;;17.08;68.22
71917;BME280;59793;46.506;6.674;2022-10-16T01:31:27;97166.25;;;16.77;68.69
71917;BME280;59793;46.506;6.674;2022-10-16T01:34:15;97183.69;;;16.70;69.79
71917;BME280;59793;46.506;6.674;2022-10-16T01:37:02;97187.47;;;16.55;70.13
71917;BME280;59793;46.506;6.674;2022-10-16T01:39:32;97186.69;;;16.55;69.77
71917;BME280;59793;46.506;6.674;2022-10-16T01:42:04;97174.50;;;16.50;68.66
71917;BME280;59793;46.506;6.674;2022-10-16T01:44:32;97204.22;;;16.73;68.74
71917;BME280;59793;46.506;6.674;2022-10-16T01:46:59;97201.25;;;16.86;66.96
71917;BME280;59793;46.506;6.674;2022-10-16T01:49:27;97194.78;;;16.87;67.48
71917;BME280;59793;46.506;6.674;2022-10-16T01:51:56;97176.13;;;16.76;67.56
71917;BME280;59793;46.506;6.674;2022-10-16T01:54:27;97186.41;;;16.88;67.82
71917;BME280;59793;46.506;6.674;2022-10-16T01:56:55;97194.41;;;16.99;69.72
71917;BME280;59793;46.506;6.674;2022-10-16T01:59:24;97192.88;;;16.91;69.35
71917;BME280;59793;46.506;6.674;2022-10-16T02:01:56;97166.59;;;16.64;69.19
71917;BME280;59793;46.506;6.674;2022-10-16T02:06:52;97183.00;;;16.88;65.86
71917;BME280;59793;46.506;6.674;2022-10-16T02:09:18;97186.06;;;16.97;65.42
71917;BME280;59793;46.506;6.674;2022-10-16T02:11:43;97195.94;;;16.96;67.18
71917;BME280;59793;46.506;6.674;2022-10-16T02:14:09;97178.44;;;16.99;67.81
71917;BME280;59793;46.506;6.674;2022-10-16T02:16:42;97166.28;;;17.02;67.50
71917;BME280;59793;46.506;6.674;2022-10-16T02:19:08;97157.94;;;17.03;66.58
71917;BME280;59793;46.506;6.674;2022-10-16T02:21:48;97147.28;;;17.03;66.94
71917;BME280;59793;46.506;6.674;2022-10-16T02:27:06;97164.00;;;17.00;65.07
71917;BME280;59793;46.506;6.674;2022-10-16T02:29:39;97160.94;;;17.02;64.79
71917;BME280;59793;46.506;6.674;2022-10-16T02:32:09;97151.81;;;17.03;66.07
71917;BME280;59793;46.506;6.674;2022-10-16T02:34:36;97157.94;;;17.17;65.74
71917;BME280;59793;46.506;6.674;2022-10-16T02:37:04;97161.34;;;17.18;65.39
71917;BME280;59793;46.506;6.674;2022-10-16T02:39:30;97166.28;;;17.05;67.65
71917;BME280;59793;46.506;6.674;2022-10-16T02:41:56;97181.47;;;16.87;68.74
71917;BME280;59793;46.506;6.674;2022-10-16T02:44:21;97168.81;;;16.48;70.30
71917;BME280;59793;46.506;6.674;2022-10-16T02:46:46;97172.97;;;16.38;70.52
71917;BME280;59793;46.506;6.674;2022-10-16T02:49:12;97182.09;;;16.37;70.80
71917;BME280;59793;46.506;6.674;2022-10-16T02:51:37;97172.22;;;16.38;70.18
71917;BME280;59793;46.506;6.674;2022-10-16T02:54:03;97187.47;;;16.55;69.81
71917;BME280;59793;46.506;6.674;2022-10-16T02:56:29;97185.97;;;16.68;69.31
71917;BME280;59793;46.506;6.674;2022-10-16T02:58:55;97153.28;;;16.64;69.29
71917;BME280;59793;46.506;6.674;2022-10-16T03:01:21;97184.50;;;16.89;68.52
71917;BME280;59793;46.506;6.674;2022-10-16T03:03:46;97178.06;;;16.83;69.74
71917;BME280;59793;46.506;6.674;2022-10-16T03:06:11;97185.28;;;16.79;70.09
71917;BME280;59793;46.506;6.674;2022-10-16T03:08:37;97188.69;;;16.76;68.93
71917;BME280;59793;46.506;6.674;2022-10-16T03:11:02;97192.84;;;16.77;69.23
71917;BME280;59793;46.506;6.674;2022-10-16T03:13:27;97190.22;;;16.84;69.05
71917;BME280;59793;46.506;6.674;2022-10-16T03:15:53;97187.53;;;16.80;69.11
71917;BME280;59793;46.506;6.674;2022-10-16T03:18:18;97198.94;;;16.81;68.65
71917;BME280;59793;46.506;6.674;2022-10-16T03:20:44;97185.63;;;16.77;67.52
71917;BME280;59793;46.506;6.674;2022-10-16T03:23:09;97182.22;;;16.77;67.36
71917;BME280;59793;46.506;6.674;2022-10-16T03:25:34;97192.88;;;16.91;67.51
71917;BME280;59793;46.506;6.674;2022-10-16T03:28:00;97198.59;;;16.93;66.77
71917;BME280;59793;46.506;6.674;2022-10-16T03:30:25;97201.25;;;16.96;64.83
71917;BME280;59793;46.506;6.674;2022-10-16T03:32:51;97191.38;;;17.01;65.14
71917;BME280;59793;46.506;6.674;2022-10-16T03:35:23;97203.53;;;17.05;64.38
71917;BME280;59793;46.506;6.674;2022-10-16T03:37:49;97211.16;;;17.03;65.31
71917;BME280;59793;46.506;6.674;2022-10-16T03:40:15;97207.34;;;16.90;67.50
71917;BME280;59793;46.506;6.674;2022-10-16T03:42:42;97207.31;;;16.83;67.73
71917;BME280;59793;46.506;6.674;2022-10-16T03:45:08;97204.97;;;16.70;67.97
71917;BME280;59793;46.506;6.674;2022-10-16T03:47:33;97217.19;;;16.79;68.06
71917;BME280;59793;46.506;6.674;2022-10-16T03:49:59;97189.72;;;16.53;68.75
71917;BME280;59793;46.506;6.674;2022-10-16T03:52:24;97224.00;;;16.72;68.28
71917;BME280;59793;46.506;6.674;2022-10-16T03:54:50;97200.75;;;16.55;68.01
71917;BME280;59793;46.506;6.674;2022-10-16T03:57:16;97215.63;;;16.70;67.63
71917;BME280;59793;46.506;6.674;2022-10-16T03:59:41;97215.59;;;16.67;68.56
71917;BME280;59793;46.506;6.674;2022-10-16T04:02:06;97225.88;;;16.61;69.10
71917;BME280;59793;46.506;6.674;2022-10-16T04:04:32;97226.19;;;16.53;67.80
71917;BME280;59793;46.506;6.674;2022-10-16T04:06:57;97221.25;;;16.44;68.56
71917;BME280;59793;46.506;6.674;2022-10-16T04:09:22;97221.22;;;16.37;68.18
71917;BME280;59793;46.506;6.674;2022-10-16T04:11:48;97223.47;;;16.31;68.96
71917;BME280;59793;46.506;6.674;2022-10-16T04:14:13;97210.88;;;16.21;67.99
71917;BME280;59793;46.506;6.674;2022-10-16T04:16:39;97221.19;;;16.30;69.89
71917;BME280;59793;46.506;6.674;2022-10-16T04:19:04;97225.31;;;16.20;69.44
71917;BME280;59793;46.506;6.674;2022-10-16T04:21:29;97216.94;;;16.18;69.27
71917;BME280;59793;46.506;6.674;2022-10-16T04:23:55;97213.19;;;16.22;68.14
71917;BME280;59793;46.506;6.674;2022-10-16T04:26:20;97209.38;;;16.20;68.27
71917;BME280;59793;46.506;6.674;2022-10-16T04:28:45;97212.44;;;16.22;67.97
71917;BME280;59793;46.506;6.674;2022-10-16T04:31:10;97211.59;;;16.14;69.46
71917;BME280;59793;46.506;6.674;2022-10-16T04:33:36;97224.19;;;16.24;69.25
71917;BME280;59793;46.506;6.674;2022-10-16T04:36:02;97210.13;;;16.20;69.23
71917;BME280;59793;46.506;6.674;2022-10-16T04:38:28;97200.97;;;16.11;69.23
71917;BME280;59793;46.506;6.674;2022-10-16T04:40:54;97197.09;;;15.90;69.61
71917;BME280;59793;46.506;6.674;2022-10-16T04:43:20;97169.53;;;15.61;70.03
71917;BME280;59793;46.506;6.674;2022-10-16T04:45:46;97206.91;;;15.90;69.93
71917;BME280;59793;46.506;6.674;2022-10-16T04:48:11;97235.94;;;16.16;69.26
71917;BME280;59793;46.506;6.674;2022-10-16T04:50:36;97232.88;;;16.18;69.13
71917;BME280;59793;46.506;6.674;2022-10-16T04:53:02;97231.78;;;16.19;68.77
71917;BME280;59793;46.506;6.674;2022-10-16T04:55:27;97239.84;;;16.37;69.13
71917;BME280;59793;46.506;6.674;2022-10-16T04:57:52;97224.97;;;16.29;68.50
71917;BME280;59793;46.506;6.674;2022-10-16T05:00:18;97242.88;;;16.46;68.16
71917;BME280;59793;46.506;6.674;2022-10-16T05:02:44;97241.00;;;16.46;67.95
71917;BME280;59793;46.506;6.674;2022-10-16T05:05:09;97228.06;;;16.38;67.35
71917;BME280;59793;46.506;6.674;2022-10-16T05:07:35;97231.09;;;16.40;66.33
71917;BME280;59793;46.506;6.674;2022-10-16T05:10:00;97233.41;;;16.48;66.38
71917;BME280;59793;46.506;6.674;2022-10-16T05:12:26;97227.69;;;16.46;66.56
71917;BME280;59793;46.506;6.674;2022-10-16T05:14:51;97238.41;;;16.57;66.27
71917;BME280;59793;46.506;6.674;2022-10-16T05:17:16;97235.31;;;16.48;67.15
71917;BME280;59793;46.506;6.674;2022-10-16T05:19:42;97244.44;;;16.47;67.28
71917;BME280;59793;46.506;6.674;2022-10-16T05:22:07;97222.34;;;16.43;66.61
71917;BME280;59793;46.506;6.674;2022-10-16T05:24:32;97234.56;;;16.55;68.04
71917;BME280;59793;46.506;6.674;2022-10-16T05:26:58;97228.84;;;16.49;67.04
71917;BME280;59793;46.506;6.674;2022-10-16T05:29:23;97237.25;;;16.55;65.60
71917;BME280;59793;46.506;6.674;2022-10-16T05:31:53;97233.78;;;16.47;65.72
71917;BME280;59793;46.506;6.674;2022-10-16T05:34:19;97216.28;;;16.42;65.23
71917;BME280;59793;46.506;6.674;2022-10-16T05:36:44;97250.16;;;16.56;65.91
71917;BME280;59793;46.506;6.674;2022-10-16T05:39:10;97233.31;;;16.23;67.36
71917;BME280;59793;46.506;6.674;2022-10-16T05:41:36;97247.34;;;16.20;67.61
71917;BME280;59793;46.506;6.674;2022-10-16T05:44:04;97219.88;;;15.95;68.50
71917;BME280;59793;46.506;6.674;2022-10-16T05:46:29;97249.53;;;16.04;68.96
71917;BME280;59793;46.506;6.674;2022-10-16T05:48:55;97244.94;;;15.94;69.29
71917;BME280;59793;46.506;6.674;2022-10-16T05:51:20;97241.09;;;15.88;69.57
71917;BME280;59793;46.506;6.674;2022-10-16T05:53:45;97241.81;;;15.81;69.89
71917;BME280;59793;46.506;6.674;2022-10-16T05:56:11;97257.84;;;15.95;69.74
71917;BME280;59793;46.506;6.674;2022-10-16T05:58:38;97247.97;;;15.96;69.53
71917;BME280;59793;46.506;6.674;2022-10-16T06:01:14;97250.28;;;16.01;69.31
71917;BME280;59793;46.506;6.674;2022-10-16T06:03:39;97254.09;;;16.07;69.14
71917;BME280;59793;46.506;6.674;2022-10-16T06:06:16;97255.66;;;16.12;68.73
71917;BME280;59793;46.506;6.674;2022-10-16T06:08:42;97232.81;;;16.04;68.26
71917;BME280;59793;46.506;6.674;2022-10-16T06:11:10;97251.88;;;16.16;67.79
71917;BME280;59793;46.506;6.674;2022-10-16T06:13:35;97256.53;;;16.34;66.37
71917;BME280;59793;46.506;6.674;2022-10-16T06:16:03;97264.16;;;16.42;65.89
71917;BME280;59793;46.506;6.674;2022-10-16T06:18:29;97246.19;;;16.21;68.34
71917;BME280;59793;46.506;6.674;2022-10-16T06:20:55;97272.44;;;16.23;69.12
71917;BME280;59793;46.506;6.674;2022-10-16T06:23:21;97259.72;;;15.95;69.08
71917;BME280;59793;46.506;6.674;2022-10-16T06:25:46;97276.19;;;16.15;68.18
71917;BME280;59793;46.506;6.674;2022-10-16T06:28:13;97277.38;;;16.28;68.48
71917;BME280;59793;46.506;6.674;2022-10-16T06:30:39;97235.06;;;15.98;70.19
71917;BME280;59793;46.506;6.674;2022-10-16T06:33:04;97293.63;;;16.12;70.86
71917;BME280;59793;46.506;6.674;2022-10-16T06:35:29;97272.97;;;15.88;70.68
71917;BME280;59793;46.506;6.674;2022-10-16T06:37:57;97273.78;;;15.95;70.80
71917;BME280;59793;46.506;6.674;2022-10-16T06:40:22;97280.63;;;16.00;71.66
71917;BME280;59793;46.506;6.674;2022-10-16T06:42:47;97288.63;;;16.04;71.46
71917;BME280;59793;46.506;6.674;2022-10-16T06:45:13;97297.41;;;16.11;69.96
71917;BME280;59793;46.506;6.674;2022-10-16T06:47:38;97306.25;;;16.26;69.50
71917;BME280;59793;46.506;6.674;2022-10-16T06:50:04;97311.91;;;16.24;69.89
71917;BME280;59793;46.506;6.674;2022-10-16T06:52:32;97314.69;;;16.46;69.22
71917;BME280;59793;46.506;6.674;2022-10-16T06:54:57;97310.53;;;16.48;69.55
71917;BME280;59793;46.506;6.674;2022-10-16T06:57:22;97314.03;;;16.63;69.35
71917;BME280;59793;46.506;6.674;2022-10-16T06:59:48;97302.59;;;16.59;70.09
71917;BME280;59793;46.506;6.674;2022-10-16T07:02:13;97312.19;;;16.75;70.84
71917;BME280;59793;46.506;6.674;2022-10-16T07:04:38;97323.56;;;16.71;70.72
71917;BME280;59793;46.506;6.674;2022-10-16T07:07:04;97314.38;;;16.55;70.70
71917;BME280;59793;46.506;6.674;2022-10-16T07:09:29;97329.16;;;16.52;71.13
71917;BME280;59793;46.506;6.674;2022-10-16T07:11:54;97316.13;;;16.25;71.05
71917;BME280;59793;46.506;6.674;2022-10-16T07:14:21;97333.97;;;16.29;70.65
71917;BME280;59793;46.506;6.674;2022-10-16T07:16:47;97346.59;;;16.46;70.63
71917;BME280;59793;46.506;6.674;2022-10-16T07:19:13;97350.13;;;16.57;69.87
71917;BME280;59793;46.506;6.674;2022-10-16T07:21:40;97342.19;;;16.68;69.59
71917;BME280;59793;46.506;6.674;2022-10-16T07:24:10;97359.41;;;16.95;68.97
71917;BME280;59793;46.506;6.674;2022-10-16T07:26:37;97338.13;;;16.99;68.72
71917;BME280;59793;46.506;6.674;2022-10-16T07:29:07;97344.28;;;17.10;65.45
71917;BME280;59793;46.506;6.674;2022-10-16T07:31:32;97347.72;;;17.22;64.25
71917;BME280;59793;46.506;6.674;2022-10-16T07:34:01;97355.00;;;17.42;62.01
71917;BME280;59793;46.506;6.674;2022-10-16T07:36:26;97374.84;;;17.77;61.63
71917;BME280;59793;46.506;6.674;2022-10-16T07:38:52;97371.06;;;18.03;60.73
71917;BME280;59793;46.506;6.674;2022-10-16T07:41:19;97390.84;;;18.38;58.21
71917;BME280;59793;46.506;6.674;2022-10-16T07:43:48;97376.72;;;18.62;56.47
71917;BME280;59793;46.506;6.674;2022-10-16T07:46:15;97380.88;;;18.78;55.50
71917;BME280;59793;46.506;6.674;2022-10-16T07:48:41;97385.03;;;18.86;55.77
71917;BME280;59793;46.506;6.674;2022-10-16T07:51:11;97380.47;;;18.83;56.31
71917;BME280;59793;46.506;6.674;2022-10-16T07:53:36;97396.09;;;18.92;58.11
71917;BME280;59793;46.506;6.674;2022-10-16T07:56:04;97395.34;;;18.91;60.09
71917;BME280;59793;46.506;6.674;2022-10-16T07:58:30;97389.94;;;19.05;61.31
71917;BME280;59793;46.506;6.674;2022-10-16T08:00:57;97383.88;;;19.01;61.75
71917;BME280;59793;46.506;6.674;2022-10-16T08:03:23;97402.53;;;19.08;60.25
71917;BME280;59793;46.506;6.674;2022-10-16T08:05:49;97406.81;;;18.74;60.31
71917;BME280;59793;46.506;6.674;2022-10-16T08:08:15;97411.72;;;18.93;58.71
71917;BME280;59793;46.506;6.674;2022-10-16T08:10:41;97410.16;;;19.06;57.86
71917;BME280;59793;46.506;6.674;2022-10-16T08:13:07;97398.72;;;19.02;56.12
71917;BME280;59793;46.506;6.674;2022-10-16T08:15:33;97413.19;;;19.12;55.54
71917;BME280;59793;46.506;6.674;2022-10-16T08:18:00;97425.38;;;19.17;56.00
71917;BME280;59793;46.506;6.674;2022-10-16T08:20:27;97421.22;;;19.08;57.24
71917;BME280;59793;46.506;6.674;2022-10-16T08:22:53;97427.34;;;18.98;58.25
71917;BME280;59793;46.506;6.674;2022-10-16T08:25:19;97426.63;;;18.94;58.97
71917;BME280;59793;46.506;6.674;2022-10-16T08:27:45;97406.81;;;18.77;59.81
71917;BME280;59793;46.506;6.674;2022-10-16T08:30:10;97406.81;;;18.81;58.42
71917;BME280;59793;46.506;6.674;2022-10-16T08:32:36;97393.84;;;18.76;59.76
71917;BME280;59793;46.506;6.674;2022-10-16T08:35:01;97393.47;;;18.77;61.74
71917;BME280;59793;46.506;6.674;2022-10-16T08:37:30;97421.25;;;19.01;62.43
71917;BME280;59793;46.506;6.674;2022-10-16T08:39:57;97419.34;;;18.98;60.83
71917;BME280;59793;46.506;6.674;2022-10-16T08:50:26;97435.88;;;19.59;59.02
71917;BME280;59793;46.506;6.674;2022-10-16T08:52:53;97440.63;;;20.00;58.25
71917;BME280;59793;46.506;6.674;2022-10-16T08:55:42;97424.56;;;20.45;57.43
71917;BME280;59793;46.506;6.674;2022-10-16T08:58:19;97432.09;;;20.99;55.90
71917;BME280;59793;46.506;6.674;2022-10-16T09:00:47;97436.69;;;20.98;54.65
71917;BME280;59793;46.506;6.674;2022-10-16T09:08:49;97437.06;;;20.63;56.35
71917;BME280;59793;46.506;6.674;2022-10-16T09:11:46;97438.53;;;20.71;57.31
71917;BME280;59793;46.506;6.674;2022-10-16T09:16:56;97434.41;;;20.97;54.89
71917;BME280;59793;46.506;6.674;2022-10-16T09:19:37;97439.16;;;20.82;55.13
71917;BME280;59793;46.506;6.674;2022-10-16T09:22:14;97428.66;;;20.98;53.76
71917;BME280;59793;46.506;6.674;2022-10-16T09:24:40;97438.94;;;20.66;55.41
71917;BME280;59793;46.506;6.674;2022-10-16T09:27:10;97450.53;;;20.93;55.18
71917;BME280;59793;46.506;6.674;2022-10-16T09:29:36;97445.00;;;21.08;55.71
71917;BME280;59793;46.506;6.674;2022-10-16T09:32:12;97427.88;;;21.32;57.01
71917;BME280;59793;46.506;6.674;2022-10-16T09:34:43;97457.25;;;21.74;55.99
71917;BME280;59793;46.506;6.674;2022-10-16T09:37:14;97454.63;;;21.70;54.41
71917;BME280;59793;46.506;6.674;2022-10-16T09:39:49;97433.88;;;21.98;54.92
71917;BME280;59793;46.506;6.674;2022-10-16T09:42:20;97461.38;;;22.32;52.08
71917;BME280;59793;46.506;6.674;2022-10-16T09:44:51;97454.25;;;22.22;52.69
71917;BME280;59793;46.506;6.674;2022-10-16T09:47:21;97453.59;;;22.14;52.11
71917;BME280;59793;46.506;6.674;2022-10-16T09:50:20;97451.81;;;22.04;53.15
71917;BME280;59793;46.506;6.674;2022-10-16T09:52:47;97455.75;;;21.69;53.25
71917;BME280;59793;46.506;6.674;2022-10-16T09:55:15;97460.69;;;21.74;52.79
71917;BME280;59793;46.506;6.674;2022-10-16T09:57:51;97459.09;;;22.04;52.31
71917;BME280;59793;46.506;6.674;2022-10-16T10:00:17;97445.34;;;22.02;51.36
71917;BME280;59793;46.506;6.674;2022-10-16T10:02:44;97442.56;;;22.09;51.10
71917;BME280;59793;46.506;6.674;2022-10-16T10:05:27;97451.63;;;22.18;51.60
71917;BME280;59793;46.506;6.674;2022-10-16T10:10:28;97446.19;;;22.69;47.74
71917;BME280;59793;46.506;6.674;2022-10-16T10:12:54;97453.53;;;22.18;49.70
71917;BME280;59793;46.506;6.674;2022-10-16T10:15:21;97449.28;;;22.21;50.02
71917;BME280;59793;46.506;6.674;2022-10-16T10:17:53;97456.28;;;21.87;51.12
71917;BME280;59793;46.506;6.674;2022-10-16T10:22:50;97448.75;;;22.76;47.26
71917;BME280;59793;46.506;6.674;2022-10-16T10:30:30;97452.47;;;22.82;47.48
71917;BME280;59793;46.506;6.674;2022-10-16T10:33:18;97449.91;;;22.75;48.95
71917;BME280;59793;46.506;6.674;2022-10-16T10:38:50;97433.78;;;22.32;50.67
71917;BME280;59793;46.506;6.674;2022-10-16T10:46:40;97440.94;;;22.62;47.83
71917;BME280;59793;46.506;6.674;2022-10-16T11:00:50;97437.06;;;23.82;44.06
71917;BME280;59793;46.506;6.674;2022-10-16T11:06:22;97438.94;;;23.29;44.61
71917;BME280;59793;46.506;6.674;2022-10-16T11:09:09;97430.72;;;23.73;41.96
71917;BME280;59793;46.506;6.674;2022-10-16T11:11:46;97425.03;;;23.87;42.39
71917;BME280;59793;46.506;6.674;2022-10-16T11:19:55;97432.88;;;24.14;39.37
71917;BME280;59793;46.506;6.674;2022-10-16T11:22:39;97423.94;;;23.68;41.41
71917;BME280;59793;46.506;6.674;2022-10-16T11:30:18;97418.94;;;23.30;41.27
71917;BME280;59793;46.506;6.674;2022-10-16T11:32:54;97414.81;;;23.62;40.26
71917;BME280;59793;46.506;6.674;2022-10-16T11:35:52;97414.19;;;23.91;39.35
71917;BME280;59793;46.506;6.674;2022-10-16T11:38:38;97411.50;;;23.91;40.04
71917;BME280;59793;46.506;6.674;2022-10-16T11:43:51;97394.69;;;24.03;40.34
71917;BME280;59793;46.506;6.674;2022-10-16T11:46:21;97392.00;;;24.03;38.60
71917;BME280;59793;46.506;6.674;2022-10-16T11:48:57;97386.25;;;23.84;38.37
71917;BME280;59793;46.506;6.674;2022-10-16T11:51:33;97381.22;;;23.87;39.02
71917;BME280;59793;46.506;6.674;2022-10-16T11:56:30;97375.09;;;23.86;42.33
71917;BME280;59793;46.506;6.674;2022-10-16T11:59:02;97375.91;;;23.83;40.77
71917;BME280;59793;46.506;6.674;2022-10-16T12:04:31;97375.53;;;24.30;39.38
71917;BME280;59793;46.506;6.674;2022-10-16T12:07:22;97366.69;;;23.68;41.16
71917;BME280;59793;46.506;6.674;2022-10-16T12:09:49;97365.66;;;23.94;41.30
71917;BME280;59793;46.506;6.674;2022-10-16T12:12:47;97367.38;;;24.50;41.27
71917;BME280;59793;46.506;6.674;2022-10-16T12:15:30;97376.63;;;24.78;38.96
71917;BME280;59793;46.506;6.674;2022-10-16T12:17:56;97346.63;;;24.76;40.28
71917;BME280;59793;46.506;6.674;2022-10-16T12:20:31;97357.34;;;25.34;38.83
71917;BME280;59793;46.506;6.674;2022-10-16T12:23:00;97362.50;;;25.41;37.00
71917;BME280;59793;46.506;6.674;2022-10-16T12:25:30;97366.84;;;24.97;38.04
71917;BME280;59793;46.506;6.674;2022-10-16T12:30:24;97358.84;;;25.35;39.15
71917;BME280;59793;46.506;6.674;2022-10-16T12:32:56;97363.56;;;25.69;38.27
71917;BME280;59793;46.506;6.674;2022-10-16T12:35:28;97354.47;;;24.99;39.65
71917;BME280;59793;46.506;6.674;2022-10-16T12:38:05;97357.31;;;24.79;38.37
71917;BME280;59793;46.506;6.674;2022-10-16T12:40:32;97353.38;;;24.84;39.50
71917;BME280;59793;46.506;6.674;2022-10-16T12:42:59;97351.81;;;24.83;42.02
71917;BME280;59793;46.506;6.674;2022-10-16T12:45:33;97343.28;;;25.26;41.50
71917;BME280;59793;46.506;6.674;2022-10-16T12:48:04;97339.63;;;25.59;40.78
71917;BME280;59793;46.506;6.674;2022-10-16T12:50:43;97353.06;;;25.97;39.27
71917;BME280;59793;46.506;6.674;2022-10-16T12:53:19;97354.81;;;25.78;39.18
71917;BME280;59793;46.506;6.674;2022-10-16T12:55:52;97335.94;;;25.65;39.11
71917;BME280;59793;46.506;6.674;2022-10-16T12:58:51;97336.72;;;26.13;38.62
71917;BME280;59793;46.506;6.674;2022-10-16T13:01:28;97341.59;;;26.40;36.17
71917;BME280;59793;46.506;6.674;2022-10-16T13:07:11;97357.28;;;26.67;36.18
71917;BME280;59793;46.506;6.674;2022-10-16T13:10:13;97342.78;;;26.39;38.17
71917;BME280;59793;46.506;6.674;2022-10-16T13:24:09;97337.69;;;27.79;32.74
71917;BME280;59793;46.506;6.674;2022-10-16T13:26:55;97333.66;;;28.11;33.50
71917;BME280;59793;46.506;6.674;2022-10-16T13:29:22;97323.41;;;28.15;32.96
71917;BME280;59793;46.506;6.674;2022-10-16T13:31:47;97335.00;;;27.97;34.95
71917;BME280;59793;46.506;6.674;2022-10-16T13:34:17;97332.38;;;27.26;39.04
71917;BME280;59793;46.506;6.674;2022-10-16T13:36:46;97338.22;;;26.14;39.39
71917;BME280;59793;46.506;6.674;2022-10-16T13:41:40;97320.38;;;26.74;39.24
71917;BME280;59793;46.506;6.674;2022-10-16T13:44:13;97321.09;;;26.30;43.39
71917;BME280;59793;46.506;6.674;2022-10-16T13:46:39;97329.56;;;26.76;40.99
71917;BME280;59793;46.506;6.674;2022-10-16T13:49:12;97327.75;;;27.04;39.21
71917;BME280;59793;46.506;6.674;2022-10-16T13:51:38;97324.41;;;27.22;40.01
71917;BME280;59793;46.506;6.674;2022-10-16T13:54:03;97333.53;;;27.15;38.39
71917;BME280;59793;46.506;6.674;2022-10-16T13:56:31;97323.13;;;27.45;35.28
71917;BME280;59793;46.506;6.674;2022-10-16T13:58:58;97314.56;;;27.47;37.48
71917;BME280;59793;46.506;6.674;2022-10-16T14:01:30;97328.25;;;27.52;40.79
71917;BME280;59793;46.506;6.674;2022-10-16T14:04:02;97332.53;;;27.31;41.84
71917;BME280;59793;46.506;6.674;2022-10-16T14:06:29;97330.88;;;27.25;42.23
71917;BME280;59793;46.506;6.674;2022-10-16T14:09:02;97316.63;;;27.33;41.62
71917;BME280;59793;46.506;6.674;2022-10-16T14:11:29;97343.75;;;27.21;41.41
71917;BME280;59793;46.506;6.674;2022-10-16T14:13:55;97307.44;;;27.90;39.33
71917;BME280;59793;46.506;6.674;2022-10-16T14:16:23;97328.69;;;28.65;33.63
71917;BME280;59793;46.506;6.674;2022-10-16T14:18:56;97326.25;;;28.76;36.66
71917;BME280;59793;46.506;6.674;2022-10-16T14:21:22;97320.50;;;28.83;35.36
71917;BME280;59793;46.506;6.674;2022-10-16T14:23:48;97321.72;;;28.82;35.62
71917;BME280;59793;46.506;6.674;2022-10-16T14:26:16;97325.84;;;28.59;36.70
71917;BME280;59793;46.506;6.674;2022-10-16T14:28:43;97319.25;;;27.55;38.18
71917;BME280;59793;46.506;6.674;2022-10-16T14:33:44;97324.66;;;27.46;38.88
71917;BME280;59793;46.506;6.674;2022-10-16T14:38:35;97309.09;;;27.87;38.39
71917;BME280;59793;46.506;6.674;2022-10-16T14:41:03;97322.22;;;28.44;38.01
71917;BME280;59793;46.506;6.674;2022-10-16T14:45:56;97308.19;;;27.90;36.63
71917;BME280;59793;46.506;6.674;2022-10-16T14:48:22;97322.03;;;27.83;37.68
71917;BME280;59793;46.506;6.674;2022-10-16T14:50:48;97332.59;;;28.08;36.96
71917;BME280;59793;46.506;6.674;2022-10-16T14:53:14;97327.19;;;28.18;38.37
71917;BME280;59793;46.506;6.674;2022-10-16T14:55:40;97329.25;;;27.77;38.40
71917;BME280;59793;46.506;6.674;2022-10-16T14:58:21;97326.13;;;28.15;37.24
71917;BME280;59793;46.506;6.674;2022-10-16T15:00:48;97339.84;;;28.21;34.57